Terminal Aerodrome Forecast
Issued by NWS Memphis, TN

Home | Current Version | Previous Version | Text Only | Print | Product List | Glossary On
Versions: 1 2 3 4 5 6 7 8 9 10 11 12 13 14 15 16 17 18 19 20 21 22 23 24 25 26 27 28
000
FTUS44 KMEG 270259 AAA
TAFMEM
TAF AMD
KMEM 270259Z 2703/2724 01007KT P6SM SKC
     FM271100 01005KT P6SM FEW035 BKN090
     FM271500 01010G16KT P6SM VCSH SCT025 OVC035
      TEMPO 2716/2720 6SM -SHRA BKN025=

USA.gov is the U.S. government's official web portal to all federal, state and local government web resources and services.